sensor_id;sensor_type;location;lat;lon;timestamp;P1;durP1;ratioP1;P2;durP2;ratioP2
5077;SDS011;2557;51.390;7.494;2024-03-17T00:00:37;10.88;;;6.30;;
5077;SDS011;2557;51.390;7.494;2024-03-17T00:03:04;6.85;;;5.45;;
5077;SDS011;2557;51.390;7.494;2024-03-17T00:05:30;9.70;;;5.95;;
5077;SDS011;2557;51.390;7.494;2024-03-17T00:07:57;12.48;;;6.20;;
5077;SDS011;2557;51.390;7.494;2024-03-17T00:10:23;7.10;;;4.90;;
5077;SDS011;2557;51.390;7.494;2024-03-17T00:12:49;7.20;;;6.20;;
5077;SDS011;2557;51.390;7.494;2024-03-17T00:15:14;8.30;;;5.27;;
5077;SDS011;2557;51.390;7.494;2024-03-17T00:17:40;9.03;;;6.87;;
5077;SDS011;2557;51.390;7.494;2024-03-17T00:20:07;10.60;;;5.90;;
5077;SDS011;2557;51.390;7.494;2024-03-17T00:22:44;9.50;;;5.93;;
5077;SDS011;2557;51.390;7.494;2024-03-17T00:25:11;10.30;;;6.57;;
5077;SDS011;2557;51.390;7.494;2024-03-17T00:27:37;14.73;;;6.40;;
5077;SDS011;2557;51.390;7.494;2024-03-17T00:30:06;8.98;;;6.00;;
5077;SDS011;2557;51.390;7.494;2024-03-17T00:32:37;17.40;;;6.28;;
5077;SDS011;2557;51.390;7.494;2024-03-17T00:35:03;7.38;;;5.85;;
5077;SDS011;2557;51.390;7.494;2024-03-17T00:37:29;14.02;;;6.65;;
5077;SDS011;2557;51.390;7.494;2024-03-17T00:39:55;6.50;;;5.80;;
5077;SDS011;2557;51.390;7.494;2024-03-17T00:42:22;10.30;;;7.20;;
5077;SDS011;2557;51.390;7.494;2024-03-17T00:44:48;8.30;;;6.47;;
5077;SDS011;2557;51.390;7.494;2024-03-17T00:47:14;12.63;;;5.90;;
5077;SDS011;2557;51.390;7.494;2024-03-17T00:49:40;12.33;;;6.70;;
5077;SDS011;2557;51.390;7.494;2024-03-17T00:52:06;6.63;;;5.70;;
5077;SDS011;2557;51.390;7.494;2024-03-17T00:54:32;8.07;;;6.40;;
5077;SDS011;2557;51.390;7.494;2024-03-17T00:56:58;9.80;;;6.60;;
5077;SDS011;2557;51.390;7.494;2024-03-17T00:59:24;9.53;;;7.27;;
5077;SDS011;2557;51.390;7.494;2024-03-17T01:01:51;9.73;;;6.60;;
5077;SDS011;2557;51.390;7.494;2024-03-17T01:04:16;8.60;;;6.57;;
5077;SDS011;2557;51.390;7.494;2024-03-17T01:06:42;11.63;;;7.37;;
5077;SDS011;2557;51.390;7.494;2024-03-17T01:09:08;7.63;;;6.17;;
5077;SDS011;2557;51.390;7.494;2024-03-17T01:11:35;11.88;;;6.88;;
5077;SDS011;2557;51.390;7.494;2024-03-17T01:14:01;7.35;;;6.45;;
5077;SDS011;2557;51.390;7.494;2024-03-17T01:16:27;6.75;;;5.63;;
5077;SDS011;2557;51.390;7.494;2024-03-17T01:18:53;8.10;;;5.45;;
5077;SDS011;2557;51.390;7.494;2024-03-17T01:21:19;10.47;;;7.20;;
5077;SDS011;2557;51.390;7.494;2024-03-17T01:23:47;9.13;;;6.43;;
5077;SDS011;2557;51.390;7.494;2024-03-17T01:26:14;12.30;;;6.85;;
5077;SDS011;2557;51.390;7.494;2024-03-17T01:28:40;11.10;;;6.53;;
5077;SDS011;2557;51.390;7.494;2024-03-17T01:31:06;7.97;;;5.90;;
5077;SDS011;2557;51.390;7.494;2024-03-17T01:33:32;10.48;;;6.72;;
5077;SDS011;2557;51.390;7.494;2024-03-17T01:35:59;6.97;;;6.05;;
5077;SDS011;2557;51.390;7.494;2024-03-17T01:38:25;8.18;;;5.88;;
5077;SDS011;2557;51.390;7.494;2024-03-17T01:40:51;9.73;;;6.00;;
5077;SDS011;2557;51.390;7.494;2024-03-17T01:43:17;16.45;;;6.60;;
5077;SDS011;2557;51.390;7.494;2024-03-17T01:45:43;7.60;;;5.50;;
5077;SDS011;2557;51.390;7.494;2024-03-17T01:48:12;7.00;;;5.88;;
5077;SDS011;2557;51.390;7.494;2024-03-17T01:50:40;7.03;;;6.07;;
5077;SDS011;2557;51.390;7.494;2024-03-17T01:53:06;7.57;;;5.60;;
5077;SDS011;2557;51.390;7.494;2024-03-17T01:55:33;12.18;;;6.97;;
5077;SDS011;2557;51.390;7.494;2024-03-17T01:58:00;9.38;;;5.32;;
5077;SDS011;2557;51.390;7.494;2024-03-17T02:00:26;8.27;;;5.88;;
5077;SDS011;2557;51.390;7.494;2024-03-17T02:02:53;8.30;;;6.72;;
5077;SDS011;2557;51.390;7.494;2024-03-17T02:05:19;9.43;;;6.77;;
5077;SDS011;2557;51.390;7.494;2024-03-17T02:07:45;11.80;;;6.70;;
5077;SDS011;2557;51.390;7.494;2024-03-17T02:10:11;6.10;;;5.50;;
5077;SDS011;2557;51.390;7.494;2024-03-17T02:12:37;10.02;;;6.53;;
5077;SDS011;2557;51.390;7.494;2024-03-17T02:15:04;10.05;;;7.00;;
5077;SDS011;2557;51.390;7.494;2024-03-17T02:17:30;12.07;;;6.63;;
5077;SDS011;2557;51.390;7.494;2024-03-17T02:19:56;8.73;;;6.75;;
5077;SDS011;2557;51.390;7.494;2024-03-17T02:22:22;9.67;;;6.20;;
5077;SDS011;2557;51.390;7.494;2024-03-17T02:24:48;16.00;;;6.70;;
5077;SDS011;2557;51.390;7.494;2024-03-17T02:27:14;9.73;;;5.50;;
5077;SDS011;2557;51.390;7.494;2024-03-17T02:29:40;7.60;;;4.93;;
5077;SDS011;2557;51.390;7.494;2024-03-17T02:32:07;9.40;;;6.65;;
5077;SDS011;2557;51.390;7.494;2024-03-17T02:34:33;6.70;;;6.03;;
5077;SDS011;2557;51.390;7.494;2024-03-17T02:37:00;13.77;;;6.40;;
5077;SDS011;2557;51.390;7.494;2024-03-17T02:39:26;6.85;;;5.90;;
5077;SDS011;2557;51.390;7.494;2024-03-17T02:42:10;6.30;;;5.70;;
5077;SDS011;2557;51.390;7.494;2024-03-17T02:44:37;16.75;;;6.40;;
5077;SDS011;2557;51.390;7.494;2024-03-17T02:47:05;11.27;;;6.38;;
5077;SDS011;2557;51.390;7.494;2024-03-17T02:49:33;13.70;;;7.43;;
5077;SDS011;2557;51.390;7.494;2024-03-17T02:52:04;5.97;;;5.38;;
5077;SDS011;2557;51.390;7.494;2024-03-17T02:54:31;10.98;;;7.32;;
5077;SDS011;2557;51.390;7.494;2024-03-17T02:56:57;8.43;;;6.65;;
5077;SDS011;2557;51.390;7.494;2024-03-17T02:59:23;9.38;;;6.43;;
5077;SDS011;2557;51.390;7.494;2024-03-17T03:01:49;9.27;;;6.07;;
5077;SDS011;2557;51.390;7.494;2024-03-17T03:04:15;16.45;;;7.10;;
5077;SDS011;2557;51.390;7.494;2024-03-17T03:06:41;14.38;;;7.30;;
5077;SDS011;2557;51.390;7.494;2024-03-17T03:09:08;11.73;;;6.03;;
5077;SDS011;2557;51.390;7.494;2024-03-17T03:11:39;9.02;;;6.10;;
5077;SDS011;2557;51.390;7.494;2024-03-17T03:14:05;9.85;;;6.32;;
5077;SDS011;2557;51.390;7.494;2024-03-17T03:16:31;9.50;;;6.38;;
5077;SDS011;2557;51.390;7.494;2024-03-17T03:18:58;13.48;;;5.97;;
5077;SDS011;2557;51.390;7.494;2024-03-17T03:21:24;12.07;;;6.82;;
5077;SDS011;2557;51.390;7.494;2024-03-17T03:23:50;10.65;;;6.40;;
5077;SDS011;2557;51.390;7.494;2024-03-17T03:26:16;7.93;;;6.80;;
5077;SDS011;2557;51.390;7.494;2024-03-17T03:28:43;9.02;;;6.13;;
5077;SDS011;2557;51.390;7.494;2024-03-17T03:31:12;6.30;;;5.22;;
5077;SDS011;2557;51.390;7.494;2024-03-17T03:33:42;8.10;;;6.10;;
5077;SDS011;2557;51.390;7.494;2024-03-17T03:36:11;11.43;;;6.93;;
5077;SDS011;2557;51.390;7.494;2024-03-17T03:38:37;7.35;;;6.05;;
5077;SDS011;2557;51.390;7.494;2024-03-17T03:41:12;12.97;;;8.00;;
5077;SDS011;2557;51.390;7.494;2024-03-17T03:43:38;8.70;;;6.38;;
5077;SDS011;2557;51.390;7.494;2024-03-17T03:46:05;12.00;;;7.68;;
5077;SDS011;2557;51.390;7.494;2024-03-17T03:48:31;11.52;;;7.95;;
5077;SDS011;2557;51.390;7.494;2024-03-17T03:50:59;9.75;;;6.82;;
5077;SDS011;2557;51.390;7.494;2024-03-17T03:53:25;8.63;;;7.00;;
5077;SDS011;2557;51.390;7.494;2024-03-17T03:55:51;10.95;;;6.65;;
5077;SDS011;2557;51.390;7.494;2024-03-17T03:58:17;15.23;;;6.88;;
5077;SDS011;2557;51.390;7.494;2024-03-17T04:00:43;14.93;;;6.73;;
5077;SDS011;2557;51.390;7.494;2024-03-17T04:03:09;10.73;;;7.80;;
5077;SDS011;2557;51.390;7.494;2024-03-17T04:05:35;8.00;;;6.40;;
5077;SDS011;2557;51.390;7.494;2024-03-17T04:08:01;7.67;;;5.73;;
5077;SDS011;2557;51.390;7.494;2024-03-17T04:10:27;9.30;;;6.97;;
5077;SDS011;2557;51.390;7.494;2024-03-17T04:12:53;11.40;;;6.87;;
5077;SDS011;2557;51.390;7.494;2024-03-17T04:15:19;7.95;;;7.05;;
5077;SDS011;2557;51.390;7.494;2024-03-17T04:17:45;8.93;;;7.38;;
5077;SDS011;2557;51.390;7.494;2024-03-17T04:20:12;15.68;;;7.32;;
5077;SDS011;2557;51.390;7.494;2024-03-17T04:22:38;13.20;;;7.80;;
5077;SDS011;2557;51.390;7.494;2024-03-17T04:25:04;9.20;;;7.30;;
5077;SDS011;2557;51.390;7.494;2024-03-17T04:27:30;13.50;;;7.28;;
5077;SDS011;2557;51.390;7.494;2024-03-17T04:29:58;11.43;;;7.43;;
5077;SDS011;2557;51.390;7.494;2024-03-17T04:32:24;9.10;;;7.35;;
5077;SDS011;2557;51.390;7.494;2024-03-17T04:34:52;9.63;;;6.97;;
5077;SDS011;2557;51.390;7.494;2024-03-17T04:37:18;9.80;;;6.72;;
5077;SDS011;2557;51.390;7.494;2024-03-17T04:39:44;11.88;;;7.45;;
5077;SDS011;2557;51.390;7.494;2024-03-17T04:42:11;17.65;;;6.78;;
5077;SDS011;2557;51.390;7.494;2024-03-17T04:44:39;10.20;;;7.32;;
5077;SDS011;2557;51.390;7.494;2024-03-17T04:47:05;12.50;;;6.97;;
5077;SDS011;2557;51.390;7.494;2024-03-17T04:49:38;8.35;;;6.82;;
5077;SDS011;2557;51.390;7.494;2024-03-17T04:52:04;8.48;;;6.80;;
5077;SDS011;2557;51.390;7.494;2024-03-17T04:54:31;10.38;;;6.88;;
5077;SDS011;2557;51.390;7.494;2024-03-17T04:56:57;9.52;;;7.30;;
5077;SDS011;2557;51.390;7.494;2024-03-17T04:59:23;13.52;;;8.02;;
5077;SDS011;2557;51.390;7.494;2024-03-17T05:01:49;13.80;;;7.18;;
5077;SDS011;2557;51.390;7.494;2024-03-17T05:04:15;11.00;;;7.30;;
5077;SDS011;2557;51.390;7.494;2024-03-17T05:06:41;8.00;;;7.13;;
5077;SDS011;2557;51.390;7.494;2024-03-17T05:09:11;17.58;;;7.70;;
5077;SDS011;2557;51.390;7.494;2024-03-17T05:11:38;12.98;;;7.65;;
5077;SDS011;2557;51.390;7.494;2024-03-17T05:14:04;9.73;;;7.03;;
5077;SDS011;2557;51.390;7.494;2024-03-17T05:16:30;16.08;;;9.13;;
5077;SDS011;2557;51.390;7.494;2024-03-17T05:18:56;10.98;;;8.25;;
5077;SDS011;2557;51.390;7.494;2024-03-17T05:21:22;11.37;;;7.53;;
5077;SDS011;2557;51.390;7.494;2024-03-17T05:23:48;16.95;;;9.57;;
5077;SDS011;2557;51.390;7.494;2024-03-17T05:26:14;14.20;;;9.63;;
5077;SDS011;2557;51.390;7.494;2024-03-17T05:28:40;15.40;;;10.60;;
5077;SDS011;2557;51.390;7.494;2024-03-17T05:31:06;14.87;;;8.87;;
5077;SDS011;2557;51.390;7.494;2024-03-17T05:33:32;17.30;;;9.77;;
5077;SDS011;2557;51.390;7.494;2024-03-17T05:35:59;16.17;;;9.60;;
5077;SDS011;2557;51.390;7.494;2024-03-17T05:38:27;13.38;;;8.55;;
5077;SDS011;2557;51.390;7.494;2024-03-17T05:40:56;14.13;;;8.93;;
5077;SDS011;2557;51.390;7.494;2024-03-17T05:43:24;14.90;;;8.77;;
5077;SDS011;2557;51.390;7.494;2024-03-17T05:45:51;13.13;;;8.90;;
5077;SDS011;2557;51.390;7.494;2024-03-17T05:48:17;20.20;;;9.50;;
5077;SDS011;2557;51.390;7.494;2024-03-17T05:50:43;16.03;;;9.07;;
5077;SDS011;2557;51.390;7.494;2024-03-17T05:53:09;13.20;;;8.63;;
5077;SDS011;2557;51.390;7.494;2024-03-17T05:55:36;13.02;;;8.43;;
5077;SDS011;2557;51.390;7.494;2024-03-17T05:58:02;16.90;;;9.18;;
5077;SDS011;2557;51.390;7.494;2024-03-17T06:00:28;15.60;;;8.77;;
5077;SDS011;2557;51.390;7.494;2024-03-17T06:02:55;14.80;;;8.45;;
5077;SDS011;2557;51.390;7.494;2024-03-17T06:05:21;18.13;;;9.93;;
5077;SDS011;2557;51.390;7.494;2024-03-17T06:07:47;16.77;;;9.80;;
5077;SDS011;2557;51.390;7.494;2024-03-17T06:10:13;16.35;;;10.30;;
5077;SDS011;2557;51.390;7.494;2024-03-17T06:12:39;17.02;;;8.82;;
5077;SDS011;2557;51.390;7.494;2024-03-17T06:15:06;12.93;;;9.83;;
5077;SDS011;2557;51.390;7.494;2024-03-17T06:17:32;16.30;;;8.88;;
5077;SDS011;2557;51.390;7.494;2024-03-17T06:19:58;15.20;;;9.10;;
5077;SDS011;2557;51.390;7.494;2024-03-17T06:22:24;12.80;;;7.72;;
5077;SDS011;2557;51.390;7.494;2024-03-17T06:24:50;15.30;;;9.33;;
5077;SDS011;2557;51.390;7.494;2024-03-17T06:27:16;16.30;;;8.55;;
5077;SDS011;2557;51.390;7.494;2024-03-17T06:29:42;13.50;;;9.77;;
5077;SDS011;2557;51.390;7.494;2024-03-17T06:32:08;17.83;;;9.20;;
5077;SDS011;2557;51.390;7.494;2024-03-17T06:34:34;12.48;;;9.23;;
5077;SDS011;2557;51.390;7.494;2024-03-17T06:37:00;17.30;;;11.03;;
5077;SDS011;2557;51.390;7.494;2024-03-17T06:39:26;16.60;;;9.27;;
5077;SDS011;2557;51.390;7.494;2024-03-17T06:41:52;14.10;;;9.45;;
5077;SDS011;2557;51.390;7.494;2024-03-17T06:44:18;12.47;;;9.37;;
5077;SDS011;2557;51.390;7.494;2024-03-17T06:46:44;16.83;;;10.00;;
5077;SDS011;2557;51.390;7.494;2024-03-17T06:49:12;15.75;;;10.25;;
5077;SDS011;2557;51.390;7.494;2024-03-17T06:51:38;13.15;;;8.80;;
5077;SDS011;2557;51.390;7.494;2024-03-17T06:54:04;14.10;;;9.17;;
5077;SDS011;2557;51.390;7.494;2024-03-17T06:56:30;17.70;;;9.03;;
5077;SDS011;2557;51.390;7.494;2024-03-17T06:58:57;15.77;;;10.60;;
5077;SDS011;2557;51.390;7.494;2024-03-17T07:01:23;19.43;;;10.20;;
5077;SDS011;2557;51.390;7.494;2024-03-17T07:03:49;16.37;;;10.57;;
5077;SDS011;2557;51.390;7.494;2024-03-17T07:06:15;14.10;;;9.90;;
5077;SDS011;2557;51.390;7.494;2024-03-17T07:08:41;24.07;;;11.00;;
5077;SDS011;2557;51.390;7.494;2024-03-17T07:11:07;19.40;;;11.60;;
5077;SDS011;2557;51.390;7.494;2024-03-17T07:13:34;16.45;;;11.32;;
5077;SDS011;2557;51.390;7.494;2024-03-17T07:16:01;12.35;;;7.82;;
5077;SDS011;2557;51.390;7.494;2024-03-17T07:18:30;14.20;;;9.05;;
5077;SDS011;2557;51.390;7.494;2024-03-17T07:21:00;12.98;;;8.00;;
5077;SDS011;2557;51.390;7.494;2024-03-17T07:23:28;11.38;;;8.55;;
5077;SDS011;2557;51.390;7.494;2024-03-17T07:25:55;18.27;;;10.40;;
5077;SDS011;2557;51.390;7.494;2024-03-17T07:28:21;15.15;;;9.55;;
5077;SDS011;2557;51.390;7.494;2024-03-17T07:30:51;15.80;;;9.60;;
5077;SDS011;2557;51.390;7.494;2024-03-17T07:33:18;17.90;;;10.93;;
5077;SDS011;2557;51.390;7.494;2024-03-17T07:35:51;14.35;;;9.55;;
5077;SDS011;2557;51.390;7.494;2024-03-17T07:38:17;15.93;;;9.30;;
5077;SDS011;2557;51.390;7.494;2024-03-17T07:40:44;18.70;;;10.43;;
5077;SDS011;2557;51.390;7.494;2024-03-17T07:43:10;14.52;;;9.77;;
5077;SDS011;2557;51.390;7.494;2024-03-17T07:45:36;11.40;;;9.00;;
5077;SDS011;2557;51.390;7.494;2024-03-17T07:48:03;16.07;;;9.00;;
5077;SDS011;2557;51.390;7.494;2024-03-17T07:50:29;10.87;;;9.10;;
5077;SDS011;2557;51.390;7.494;2024-03-17T07:52:55;14.60;;;8.90;;
5077;SDS011;2557;51.390;7.494;2024-03-17T07:55:21;13.23;;;8.90;;
5077;SDS011;2557;51.390;7.494;2024-03-17T07:57:47;13.43;;;8.37;;
5077;SDS011;2557;51.390;7.494;2024-03-17T08:00:13;13.83;;;8.07;;
5077;SDS011;2557;51.390;7.494;2024-03-17T08:02:44;9.83;;;7.70;;
5077;SDS011;2557;51.390;7.494;2024-03-17T08:05:11;7.80;;;7.00;;
5077;SDS011;2557;51.390;7.494;2024-03-17T08:07:37;9.40;;;8.03;;
5077;SDS011;2557;51.390;7.494;2024-03-17T08:10:03;7.50;;;6.70;;
5077;SDS011;2557;51.390;7.494;2024-03-17T08:12:29;12.57;;;7.53;;
5077;SDS011;2557;51.390;7.494;2024-03-17T08:14:55;7.90;;;6.37;;
5077;SDS011;2557;51.390;7.494;2024-03-17T08:17:21;11.87;;;6.80;;
5077;SDS011;2557;51.390;7.494;2024-03-17T08:19:47;7.80;;;7.00;;
5077;SDS011;2557;51.390;7.494;2024-03-17T08:22:13;8.33;;;6.60;;
5077;SDS011;2557;51.390;7.494;2024-03-17T08:24:39;16.40;;;6.77;;
5077;SDS011;2557;51.390;7.494;2024-03-17T08:27:05;8.43;;;6.90;;
5077;SDS011;2557;51.390;7.494;2024-03-17T08:29:32;8.33;;;6.00;;
5077;SDS011;2557;51.390;7.494;2024-03-17T08:32:01;7.50;;;6.50;;
5077;SDS011;2557;51.390;7.494;2024-03-17T08:34:27;7.73;;;5.50;;
5077;SDS011;2557;51.390;7.494;2024-03-17T08:36:53;6.20;;;5.60;;
5077;SDS011;2557;51.390;7.494;2024-03-17T08:39:19;8.70;;;6.30;;
5077;SDS011;2557;51.390;7.494;2024-03-17T08:41:44;5.93;;;5.10;;
5077;SDS011;2557;51.390;7.494;2024-03-17T08:44:11;6.80;;;5.20;;
5077;SDS011;2557;51.390;7.494;2024-03-17T08:46:37;9.33;;;5.90;;
5077;SDS011;2557;51.390;7.494;2024-03-17T08:49:03;4.77;;;4.33;;
5077;SDS011;2557;51.390;7.494;2024-03-17T08:51:30;9.70;;;4.90;;
5077;SDS011;2557;51.390;7.494;2024-03-17T08:53:57;5.30;;;4.80;;
5077;SDS011;2557;51.390;7.494;2024-03-17T08:56:23;6.13;;;5.13;;
5077;SDS011;2557;51.390;7.494;2024-03-17T08:58:49;6.30;;;4.93;;
5077;SDS011;2557;51.390;7.494;2024-03-17T09:01:15;7.00;;;5.20;;
5077;SDS011;2557;51.390;7.494;2024-03-17T09:03:41;5.77;;;4.50;;
5077;SDS011;2557;51.390;7.494;2024-03-17T09:06:15;5.50;;;5.10;;
5077;SDS011;2557;51.390;7.494;2024-03-17T09:08:41;5.83;;;5.27;;
5077;SDS011;2557;51.390;7.494;2024-03-17T09:11:11;5.40;;;4.87;;
5077;SDS011;2557;51.390;7.494;2024-03-17T09:13:37;4.87;;;4.47;;
5077;SDS011;2557;51.390;7.494;2024-03-17T09:16:03;6.00;;;5.40;;
5077;SDS011;2557;51.390;7.494;2024-03-17T09:18:33;5.40;;;4.90;;
5077;SDS011;2557;51.390;7.494;2024-03-17T09:23:26;6.63;;;5.40;;
5077;SDS011;2557;51.390;7.494;2024-03-17T09:28:45;5.43;;;4.93;;
5077;SDS011;2557;51.390;7.494;2024-03-17T09:31:11;4.30;;;3.93;;
5077;SDS011;2557;51.390;7.494;2024-03-17T09:33:37;8.27;;;4.80;;
5077;SDS011;2557;51.390;7.494;2024-03-17T09:36:04;4.37;;;3.83;;
5077;SDS011;2557;51.390;7.494;2024-03-17T09:38:34;5.80;;;3.97;;
5077;SDS011;2557;51.390;7.494;2024-03-17T09:41:00;5.10;;;3.93;;
5077;SDS011;2557;51.390;7.494;2024-03-17T09:43:36;4.33;;;3.93;;
5077;SDS011;2557;51.390;7.494;2024-03-17T09:46:03;4.57;;;4.27;;
5077;SDS011;2557;51.390;7.494;2024-03-17T09:48:29;4.83;;;3.83;;
5077;SDS011;2557;51.390;7.494;2024-03-17T09:50:56;5.77;;;4.40;;
5077;SDS011;2557;51.390;7.494;2024-03-17T09:53:29;4.90;;;4.20;;
5077;SDS011;2557;51.390;7.494;2024-03-17T09:55:59;4.67;;;3.73;;
5077;SDS011;2557;51.390;7.494;2024-03-17T09:58:26;3.57;;;3.37;;
5077;SDS011;2557;51.390;7.494;2024-03-17T10:00:52;6.03;;;3.93;;
5077;SDS011;2557;51.390;7.494;2024-03-17T10:06:03;5.60;;;3.80;;
5077;SDS011;2557;51.390;7.494;2024-03-17T10:08:30;3.70;;;3.40;;
5077;SDS011;2557;51.390;7.494;2024-03-17T10:10:59;7.37;;;5.43;;
5077;SDS011;2557;51.390;7.494;2024-03-17T10:13:25;6.83;;;4.20;;
5077;SDS011;2557;51.390;7.494;2024-03-17T10:15:51;5.13;;;4.17;;
5077;SDS011;2557;51.390;7.494;2024-03-17T10:18:20;5.73;;;4.83;;
5077;SDS011;2557;51.390;7.494;2024-03-17T10:20:47;4.07;;;3.70;;
5077;SDS011;2557;51.390;7.494;2024-03-17T10:23:17;5.33;;;3.90;;
5077;SDS011;2557;51.390;7.494;2024-03-17T10:25:44;4.90;;;4.17;;
5077;SDS011;2557;51.390;7.494;2024-03-17T10:28:11;4.20;;;3.80;;
5077;SDS011;2557;51.390;7.494;2024-03-17T10:30:37;7.23;;;4.60;;
5077;SDS011;2557;51.390;7.494;2024-03-17T10:33:05;6.20;;;5.07;;
5077;SDS011;2557;51.390;7.494;2024-03-17T10:35:36;6.30;;;4.27;;
5077;SDS011;2557;51.390;7.494;2024-03-17T10:38:05;3.50;;;3.30;;
5077;SDS011;2557;51.390;7.494;2024-03-17T10:40:32;6.47;;;3.93;;
5077;SDS011;2557;51.390;7.494;2024-03-17T10:43:01;5.57;;;5.03;;
5077;SDS011;2557;51.390;7.494;2024-03-17T10:45:27;7.87;;;4.33;;
5077;SDS011;2557;51.390;7.494;2024-03-17T10:47:58;4.13;;;3.83;;
5077;SDS011;2557;51.390;7.494;2024-03-17T10:50:25;5.97;;;4.67;;
5077;SDS011;2557;51.390;7.494;2024-03-17T10:52:55;4.83;;;4.43;;
5077;SDS011;2557;51.390;7.494;2024-03-17T10:55:23;4.10;;;3.77;;
5077;SDS011;2557;51.390;7.494;2024-03-17T10:57:50;7.60;;;4.70;;
5077;SDS011;2557;51.390;7.494;2024-03-17T11:00:17;3.83;;;3.40;;
5077;SDS011;2557;51.390;7.494;2024-03-17T11:02:44;3.97;;;3.53;;
5077;SDS011;2557;51.390;7.494;2024-03-17T11:05:14;4.37;;;3.80;;
5077;SDS011;2557;51.390;7.494;2024-03-17T11:07:41;6.70;;;3.50;;
5077;SDS011;2557;51.390;7.494;2024-03-17T11:10:23;4.73;;;3.90;;
5077;SDS011;2557;51.390;7.494;2024-03-17T11:12:50;4.50;;;4.10;;
5077;SDS011;2557;51.390;7.494;2024-03-17T11:17:49;5.10;;;4.60;;
5077;SDS011;2557;51.390;7.494;2024-03-17T11:20:28;5.53;;;4.50;;
5077;SDS011;2557;51.390;7.494;2024-03-17T11:22:55;5.40;;;4.20;;
5077;SDS011;2557;51.390;7.494;2024-03-17T11:27:55;5.57;;;4.13;;
5077;SDS011;2557;51.390;7.494;2024-03-17T11:38:50;4.80;;;4.40;;
5077;SDS011;2557;51.390;7.494;2024-03-17T11:51:44;5.17;;;4.67;;
5077;SDS011;2557;51.390;7.494;2024-03-17T11:54:13;8.02;;;4.10;;
5077;SDS011;2557;51.390;7.494;2024-03-17T11:56:41;5.17;;;3.70;;
5077;SDS011;2557;51.390;7.494;2024-03-17T11:59:07;6.03;;;4.53;;
5077;SDS011;2557;51.390;7.494;2024-03-17T12:01:34;7.87;;;4.40;;
5077;SDS011;2557;51.390;7.494;2024-03-17T12:04:00;4.77;;;4.27;;
5077;SDS011;2557;51.390;7.494;2024-03-17T12:06:30;5.13;;;4.73;;
5077;SDS011;2557;51.390;7.494;2024-03-17T12:11:41;5.40;;;5.00;;
5077;SDS011;2557;51.390;7.494;2024-03-17T12:14:14;5.53;;;5.03;;
5077;SDS011;2557;51.390;7.494;2024-03-17T12:16:47;4.80;;;4.40;;
5077;SDS011;2557;51.390;7.494;2024-03-17T12:19:19;4.23;;;3.80;;
5077;SDS011;2557;51.390;7.494;2024-03-17T12:21:56;6.33;;;4.00;;
5077;SDS011;2557;51.390;7.494;2024-03-17T12:24:24;4.93;;;4.33;;
5077;SDS011;2557;51.390;7.494;2024-03-17T12:26:51;6.80;;;4.23;;
5077;SDS011;2557;51.390;7.494;2024-03-17T12:29:25;5.67;;;4.50;;
5077;SDS011;2557;51.390;7.494;2024-03-17T12:31:52;4.87;;;4.57;;
5077;SDS011;2557;51.390;7.494;2024-03-17T12:34:19;5.80;;;5.30;;
5077;SDS011;2557;51.390;7.494;2024-03-17T12:36:45;9.20;;;4.90;;
5077;SDS011;2557;51.390;7.494;2024-03-17T12:39:18;4.20;;;3.90;;
5077;SDS011;2557;51.390;7.494;2024-03-17T12:41:45;6.97;;;4.90;;
5077;SDS011;2557;51.390;7.494;2024-03-17T12:44:21;4.50;;;4.10;;
5077;SDS011;2557;51.390;7.494;2024-03-17T12:46:47;5.20;;;4.47;;
5077;SDS011;2557;51.390;7.494;2024-03-17T12:49:13;5.10;;;4.80;;
5077;SDS011;2557;51.390;7.494;2024-03-17T12:51:39;4.17;;;3.77;;
5077;SDS011;2557;51.390;7.494;2024-03-17T12:54:12;8.90;;;5.00;;
5077;SDS011;2557;51.390;7.494;2024-03-17T12:56:38;5.10;;;4.27;;
5077;SDS011;2557;51.390;7.494;2024-03-17T12:59:25;3.37;;;3.17;;
5077;SDS011;2557;51.390;7.494;2024-03-17T13:02:10;6.00;;;4.37;;
5077;SDS011;2557;51.390;7.494;2024-03-17T13:04:37;5.67;;;5.07;;
5077;SDS011;2557;51.390;7.494;2024-03-17T13:07:10;4.40;;;4.07;;
5077;SDS011;2557;51.390;7.494;2024-03-17T13:09:36;4.70;;;4.30;;
5077;SDS011;2557;51.390;7.494;2024-03-17T13:12:11;5.30;;;4.80;;
5077;SDS011;2557;51.390;7.494;2024-03-17T13:14:38;5.40;;;4.80;;
5077;SDS011;2557;51.390;7.494;2024-03-17T13:17:04;4.90;;;4.27;;
5077;SDS011;2557;51.390;7.494;2024-03-17T13:19:30;7.20;;;3.77;;
5077;SDS011;2557;51.390;7.494;2024-03-17T13:21:56;6.80;;;3.67;;
5077;SDS011;2557;51.390;7.494;2024-03-17T13:24:22;5.63;;;4.77;;
5077;SDS011;2557;51.390;7.494;2024-03-17T13:26:48;13.63;;;5.40;;
5077;SDS011;2557;51.390;7.494;2024-03-17T13:29:15;9.20;;;3.70;;
5077;SDS011;2557;51.390;7.494;2024-03-17T13:31:41;10.10;;;5.20;;
5077;SDS011;2557;51.390;7.494;2024-03-17T13:34:07;6.80;;;5.67;;
5077;SDS011;2557;51.390;7.494;2024-03-17T13:36:35;7.60;;;4.20;;
5077;SDS011;2557;51.390;7.494;2024-03-17T13:39:01;3.87;;;3.47;;
5077;SDS011;2557;51.390;7.494;2024-03-17T13:41:27;7.03;;;4.03;;
5077;SDS011;2557;51.390;7.494;2024-03-17T13:43:53;3.10;;;2.70;;
5077;SDS011;2557;51.390;7.494;2024-03-17T13:46:22;10.20;;;4.00;;
5077;SDS011;2557;51.390;7.494;2024-03-17T13:48:48;3.80;;;3.30;;
5077;SDS011;2557;51.390;7.494;2024-03-17T13:51:14;7.33;;;3.30;;
5077;SDS011;2557;51.390;7.494;2024-03-17T13:53:40;4.27;;;3.10;;
5077;SDS011;2557;51.390;7.494;2024-03-17T13:56:10;3.90;;;3.60;;
5077;SDS011;2557;51.390;7.494;2024-03-17T13:58:37;8.77;;;3.43;;
5077;SDS011;2557;51.390;7.494;2024-03-17T14:01:04;3.83;;;3.27;;
5077;SDS011;2557;51.390;7.494;2024-03-17T14:03:30;4.70;;;3.93;;
5077;SDS011;2557;51.390;7.494;2024-03-17T14:05:58;3.30;;;3.00;;
5077;SDS011;2557;51.390;7.494;2024-03-17T14:08:24;2.83;;;2.63;;
5077;SDS011;2557;51.390;7.494;2024-03-17T14:10:50;3.03;;;2.83;;
5077;SDS011;2557;51.390;7.494;2024-03-17T14:13:16;2.67;;;2.47;;
5077;SDS011;2557;51.390;7.494;2024-03-17T14:15:42;4.33;;;3.20;;
5077;SDS011;2557;51.390;7.494;2024-03-17T14:18:08;3.97;;;3.57;;
5077;SDS011;2557;51.390;7.494;2024-03-17T14:20:35;5.63;;;3.87;;
5077;SDS011;2557;51.390;7.494;2024-03-17T14:23:02;4.47;;;3.33;;
5077;SDS011;2557;51.390;7.494;2024-03-17T14:25:28;5.10;;;2.50;;
5077;SDS011;2557;51.390;7.494;2024-03-17T14:27:54;4.13;;;2.97;;
5077;SDS011;2557;51.390;7.494;2024-03-17T14:30:20;4.20;;;3.20;;
5077;SDS011;2557;51.390;7.494;2024-03-17T14:32:46;2.87;;;2.67;;
5077;SDS011;2557;51.390;7.494;2024-03-17T14:35:13;3.53;;;2.93;;
5077;SDS011;2557;51.390;7.494;2024-03-17T14:37:40;2.97;;;2.40;;
5077;SDS011;2557;51.390;7.494;2024-03-17T14:40:08;6.10;;;2.80;;
5077;SDS011;2557;51.390;7.494;2024-03-17T14:42:40;3.67;;;3.30;;
5077;SDS011;2557;51.390;7.494;2024-03-17T14:45:06;3.57;;;3.27;;
5077;SDS011;2557;51.390;7.494;2024-03-17T14:47:33;4.27;;;2.60;;
5077;SDS011;2557;51.390;7.494;2024-03-17T14:49:59;3.70;;;3.10;;
5077;SDS011;2557;51.390;7.494;2024-03-17T14:52:25;5.20;;;2.47;;
5077;SDS011;2557;51.390;7.494;2024-03-17T14:54:51;3.20;;;2.50;;
5077;SDS011;2557;51.390;7.494;2024-03-17T14:57:19;3.27;;;2.97;;
5077;SDS011;2557;51.390;7.494;2024-03-17T14:59:46;2.20;;;2.10;;
5077;SDS011;2557;51.390;7.494;2024-03-17T15:02:12;2.53;;;2.37;;
5077;SDS011;2557;51.390;7.494;2024-03-17T15:04:38;3.20;;;2.53;;
5077;SDS011;2557;51.390;7.494;2024-03-17T15:07:04;2.47;;;2.37;;
5077;SDS011;2557;51.390;7.494;2024-03-17T15:09:30;6.13;;;2.70;;
5077;SDS011;2557;51.390;7.494;2024-03-17T15:11:57;3.70;;;2.93;;
5077;SDS011;2557;51.390;7.494;2024-03-17T15:14:23;2.90;;;2.70;;
5077;SDS011;2557;51.390;7.494;2024-03-17T15:16:50;6.20;;;2.83;;
5077;SDS011;2557;51.390;7.494;2024-03-17T15:19:16;3.40;;;2.97;;
5077;SDS011;2557;51.390;7.494;2024-03-17T15:21:42;2.70;;;2.50;;
5077;SDS011;2557;51.390;7.494;2024-03-17T15:24:08;4.63;;;2.80;;
5077;SDS011;2557;51.390;7.494;2024-03-17T15:26:34;3.90;;;3.60;;
5077;SDS011;2557;51.390;7.494;2024-03-17T15:29:00;2.60;;;2.40;;
5077;SDS011;2557;51.390;7.494;2024-03-17T15:31:28;5.07;;;3.20;;
5077;SDS011;2557;51.390;7.494;2024-03-17T15:33:54;3.53;;;3.23;;
5077;SDS011;2557;51.390;7.494;2024-03-17T15:36:22;7.30;;;3.03;;
5077;SDS011;2557;51.390;7.494;2024-03-17T15:38:49;3.70;;;3.40;;
5077;SDS011;2557;51.390;7.494;2024-03-17T15:41:15;6.13;;;2.80;;
5077;SDS011;2557;51.390;7.494;2024-03-17T15:43:42;2.70;;;2.50;;